sensor_id;sensor_type;location;lat;lon;timestamp;temperature;humidity
8979;DHT22;4524;51.364;5.448;2022-10-16T00:02:23;13.60;99.90
8979;DHT22;4524;51.364;5.448;2022-10-16T00:04:50;13.60;99.90
8979;DHT22;4524;51.364;5.448;2022-10-16T00:07:20;13.60;99.90
8979;DHT22;4524;51.364;5.448;2022-10-16T00:09:48;13.60;99.90
8979;DHT22;4524;51.364;5.448;2022-10-16T00:12:16;13.60;99.90
8979;DHT22;4524;51.364;5.448;2022-10-16T00:14:44;13.70;99.90
8979;DHT22;4524;51.364;5.448;2022-10-16T00:17:11;13.60;99.90
8979;DHT22;4524;51.364;5.448;2022-10-16T00:19:39;13.70;99.90
8979;DHT22;4524;51.364;5.448;2022-10-16T00:22:07;13.60;99.90
8979;DHT22;4524;51.364;5.448;2022-10-16T00:24:37;13.70;99.90
8979;DHT22;4524;51.364;5.448;2022-10-16T00:27:06;13.70;99.90
8979;DHT22;4524;51.364;5.448;2022-10-16T00:29:33;13.60;99.90
8979;DHT22;4524;51.364;5.448;2022-10-16T00:32:01;13.60;99.90
8979;DHT22;4524;51.364;5.448;2022-10-16T00:34:29;13.60;99.90
8979;DHT22;4524;51.364;5.448;2022-10-16T00:36:57;13.50;99.90
8979;DHT22;4524;51.364;5.448;2022-10-16T00:39:25;13.50;99.90
8979;DHT22;4524;51.364;5.448;2022-10-16T00:41:54;13.40;99.90
8979;DHT22;4524;51.364;5.448;2022-10-16T00:44:46;13.40;99.90
8979;DHT22;4524;51.364;5.448;2022-10-16T00:47:19;13.40;99.90
8979;DHT22;4524;51.364;5.448;2022-10-16T00:49:50;13.40;99.90
8979;DHT22;4524;51.364;5.448;2022-10-16T00:52:19;13.40;99.90
8979;DHT22;4524;51.364;5.448;2022-10-16T00:54:48;13.40;99.90
8979;DHT22;4524;51.364;5.448;2022-10-16T00:57:18;13.30;99.90
8979;DHT22;4524;51.364;5.448;2022-10-16T00:59:46;13.30;99.90
8979;DHT22;4524;51.364;5.448;2022-10-16T01:02:16;13.30;99.90
8979;DHT22;4524;51.364;5.448;2022-10-16T01:04:46;13.30;99.90
8979;DHT22;4524;51.364;5.448;2022-10-16T01:07:23;13.30;99.90
8979;DHT22;4524;51.364;5.448;2022-10-16T01:10:02;13.30;99.90
8979;DHT22;4524;51.364;5.448;2022-10-16T01:12:40;13.30;99.90
8979;DHT22;4524;51.364;5.448;2022-10-16T01:15:18;13.20;99.90
8979;DHT22;4524;51.364;5.448;2022-10-16T01:17:51;13.20;99.90
8979;DHT22;4524;51.364;5.448;2022-10-16T01:20:24;13.20;99.90
8979;DHT22;4524;51.364;5.448;2022-10-16T01:23:09;13.20;99.90
8979;DHT22;4524;51.364;5.448;2022-10-16T01:25:58;13.10;99.90
8979;DHT22;4524;51.364;5.448;2022-10-16T01:28:34;13.10;99.90
8979;DHT22;4524;51.364;5.448;2022-10-16T01:31:04;13.10;99.90
8979;DHT22;4524;51.364;5.448;2022-10-16T01:33:35;13.10;99.90
8979;DHT22;4524;51.364;5.448;2022-10-16T01:36:10;13.10;99.90
8979;DHT22;4524;51.364;5.448;2022-10-16T01:38:40;13.10;99.90
8979;DHT22;4524;51.364;5.448;2022-10-16T01:41:11;13.10;99.90
8979;DHT22;4524;51.364;5.448;2022-10-16T01:43:45;13.10;99.90
8979;DHT22;4524;51.364;5.448;2022-10-16T01:46:17;13.10;99.90
8979;DHT22;4524;51.364;5.448;2022-10-16T01:48:46;13.10;99.90
8979;DHT22;4524;51.364;5.448;2022-10-16T01:51:17;13.20;99.90
8979;DHT22;4524;51.364;5.448;2022-10-16T01:53:48;13.20;99.90
8979;DHT22;4524;51.364;5.448;2022-10-16T01:56:18;13.30;99.90
8979;DHT22;4524;51.364;5.448;2022-10-16T01:58:52;13.30;99.90
8979;DHT22;4524;51.364;5.448;2022-10-16T02:01:22;13.30;99.90
8979;DHT22;4524;51.364;5.448;2022-10-16T02:03:53;13.30;99.90
8979;DHT22;4524;51.364;5.448;2022-10-16T02:06:21;13.30;99.90
8979;DHT22;4524;51.364;5.448;2022-10-16T02:08:50;13.30;99.90
8979;DHT22;4524;51.364;5.448;2022-10-16T02:11:18;13.30;99.90
8979;DHT22;4524;51.364;5.448;2022-10-16T02:13:50;13.30;99.90
8979;DHT22;4524;51.364;5.448;2022-10-16T02:16:20;13.20;99.90
8979;DHT22;4524;51.364;5.448;2022-10-16T02:18:48;13.20;99.90
8979;DHT22;4524;51.364;5.448;2022-10-16T02:21:21;13.20;99.90
8979;DHT22;4524;51.364;5.448;2022-10-16T02:23:53;13.20;99.90
8979;DHT22;4524;51.364;5.448;2022-10-16T02:26:27;13.10;99.90
8979;DHT22;4524;51.364;5.448;2022-10-16T02:29:01;13.10;99.90
8979;DHT22;4524;51.364;5.448;2022-10-16T02:31:34;13.20;99.90
8979;DHT22;4524;51.364;5.448;2022-10-16T02:34:04;13.10;99.90
8979;DHT22;4524;51.364;5.448;2022-10-16T02:36:34;13.00;99.90
8979;DHT22;4524;51.364;5.448;2022-10-16T02:39:04;13.00;99.90
8979;DHT22;4524;51.364;5.448;2022-10-16T02:41:32;13.00;99.90
8979;DHT22;4524;51.364;5.448;2022-10-16T02:44:02;13.00;99.90
8979;DHT22;4524;51.364;5.448;2022-10-16T02:46:29;13.00;99.90
8979;DHT22;4524;51.364;5.448;2022-10-16T02:48:57;13.00;99.90
8979;DHT22;4524;51.364;5.448;2022-10-16T02:51:25;13.00;99.90
8979;DHT22;4524;51.364;5.448;2022-10-16T02:53:53;13.00;99.90
8979;DHT22;4524;51.364;5.448;2022-10-16T02:56:21;13.00;99.90
8979;DHT22;4524;51.364;5.448;2022-10-16T02:58:49;12.90;99.90
8979;DHT22;4524;51.364;5.448;2022-10-16T03:01:18;13.00;99.90
8979;DHT22;4524;51.364;5.448;2022-10-16T03:03:46;12.90;99.90
8979;DHT22;4524;51.364;5.448;2022-10-16T03:06:14;12.90;99.90
8979;DHT22;4524;51.364;5.448;2022-10-16T03:08:42;12.90;99.90
8979;DHT22;4524;51.364;5.448;2022-10-16T03:11:10;13.00;99.90
8979;DHT22;4524;51.364;5.448;2022-10-16T03:13:38;12.90;1.00
8979;DHT22;4524;51.364;5.448;2022-10-16T03:16:06;13.00;99.90
8979;DHT22;4524;51.364;5.448;2022-10-16T03:18:35;12.90;99.90
8979;DHT22;4524;51.364;5.448;2022-10-16T03:21:03;13.00;99.90
8979;DHT22;4524;51.364;5.448;2022-10-16T03:23:30;12.90;99.90
8979;DHT22;4524;51.364;5.448;2022-10-16T03:25:58;13.00;99.90
8979;DHT22;4524;51.364;5.448;2022-10-16T03:28:26;13.00;99.90
8979;DHT22;4524;51.364;5.448;2022-10-16T03:30:54;13.00;99.90
8979;DHT22;4524;51.364;5.448;2022-10-16T03:33:22;13.00;99.90
8979;DHT22;4524;51.364;5.448;2022-10-16T03:35:54;13.00;99.90
8979;DHT22;4524;51.364;5.448;2022-10-16T03:38:22;13.00;99.90
8979;DHT22;4524;51.364;5.448;2022-10-16T03:40:50;13.00;99.90
8979;DHT22;4524;51.364;5.448;2022-10-16T03:43:18;13.00;1.00
8979;DHT22;4524;51.364;5.448;2022-10-16T03:45:46;13.10;1.00
8979;DHT22;4524;51.364;5.448;2022-10-16T03:48:13;13.00;99.90
8979;DHT22;4524;51.364;5.448;2022-10-16T03:50:41;13.10;1.00
8979;DHT22;4524;51.364;5.448;2022-10-16T03:53:10;13.10;99.90
8979;DHT22;4524;51.364;5.448;2022-10-16T03:55:41;13.10;1.00
8979;DHT22;4524;51.364;5.448;2022-10-16T03:58:09;13.10;1.00
8979;DHT22;4524;51.364;5.448;2022-10-16T04:00:40;13.10;1.00
8979;DHT22;4524;51.364;5.448;2022-10-16T04:03:08;13.10;1.00
8979;DHT22;4524;51.364;5.448;2022-10-16T04:05:36;13.10;1.00
8979;DHT22;4524;51.364;5.448;2022-10-16T04:08:04;13.10;1.00
8979;DHT22;4524;51.364;5.448;2022-10-16T04:10:33;13.10;1.00
8979;DHT22;4524;51.364;5.448;2022-10-16T04:13:01;13.10;1.00
8979;DHT22;4524;51.364;5.448;2022-10-16T04:15:29;13.10;1.00
8979;DHT22;4524;51.364;5.448;2022-10-16T04:17:57;13.10;1.00
8979;DHT22;4524;51.364;5.448;2022-10-16T04:20:25;13.10;1.00
8979;DHT22;4524;51.364;5.448;2022-10-16T04:22:53;13.10;1.00
8979;DHT22;4524;51.364;5.448;2022-10-16T04:25:20;13.10;1.00
8979;DHT22;4524;51.364;5.448;2022-10-16T04:27:52;13.10;1.00
8979;DHT22;4524;51.364;5.448;2022-10-16T04:30:20;13.10;1.00
8979;DHT22;4524;51.364;5.448;2022-10-16T04:32:48;13.20;1.00
8979;DHT22;4524;51.364;5.448;2022-10-16T04:35:17;13.10;1.00
8979;DHT22;4524;51.364;5.448;2022-10-16T04:37:45;13.10;1.00
8979;DHT22;4524;51.364;5.448;2022-10-16T04:40:13;13.10;1.00
8979;DHT22;4524;51.364;5.448;2022-10-16T04:42:41;13.10;1.00
8979;DHT22;4524;51.364;5.448;2022-10-16T04:45:10;13.20;1.00
8979;DHT22;4524;51.364;5.448;2022-10-16T04:47:42;13.20;1.00
8979;DHT22;4524;51.364;5.448;2022-10-16T04:50:10;13.20;1.00
8979;DHT22;4524;51.364;5.448;2022-10-16T04:52:38;13.10;1.00
8979;DHT22;4524;51.364;5.448;2022-10-16T04:55:07;13.10;1.00
8979;DHT22;4524;51.364;5.448;2022-10-16T04:57:35;13.20;1.00
8979;DHT22;4524;51.364;5.448;2022-10-16T05:00:03;13.10;1.00
8979;DHT22;4524;51.364;5.448;2022-10-16T05:02:32;13.10;1.00
8979;DHT22;4524;51.364;5.448;2022-10-16T05:05:00;13.10;1.00
8979;DHT22;4524;51.364;5.448;2022-10-16T05:07:28;13.10;1.00
8979;DHT22;4524;51.364;5.448;2022-10-16T05:09:56;13.10;1.00
8979;DHT22;4524;51.364;5.448;2022-10-16T05:12:24;13.10;1.00
8979;DHT22;4524;51.364;5.448;2022-10-16T05:14:52;13.10;1.00
8979;DHT22;4524;51.364;5.448;2022-10-16T05:17:24;13.10;9.50
8979;DHT22;4524;51.364;5.448;2022-10-16T05:19:54;13.10;11.90
8979;DHT22;4524;51.364;5.448;2022-10-16T05:22:22;13.10;12.70
8979;DHT22;4524;51.364;5.448;2022-10-16T05:24:50;13.10;26.20
8979;DHT22;4524;51.364;5.448;2022-10-16T05:27:18;13.10;62.30
8979;DHT22;4524;51.364;5.448;2022-10-16T05:29:47;13.10;80.80
8979;DHT22;4524;51.364;5.448;2022-10-16T05:32:16;13.10;91.60
8979;DHT22;4524;51.364;5.448;2022-10-16T05:34:45;13.10;95.40
8979;DHT22;4524;51.364;5.448;2022-10-16T05:37:14;13.10;95.30
8979;DHT22;4524;51.364;5.448;2022-10-16T05:39:42;13.10;85.80
8979;DHT22;4524;51.364;5.448;2022-10-16T05:42:11;13.00;84.10
8979;DHT22;4524;51.364;5.448;2022-10-16T05:44:39;13.00;91.60
8979;DHT22;4524;51.364;5.448;2022-10-16T05:47:07;13.00;93.50
8979;DHT22;4524;51.364;5.448;2022-10-16T05:49:35;12.90;99.90
8979;DHT22;4524;51.364;5.448;2022-10-16T05:52:07;13.00;99.90
8979;DHT22;4524;51.364;5.448;2022-10-16T05:54:36;12.90;99.90
8979;DHT22;4524;51.364;5.448;2022-10-16T05:57:04;12.90;99.90
8979;DHT22;4524;51.364;5.448;2022-10-16T05:59:32;12.90;99.90
8979;DHT22;4524;51.364;5.448;2022-10-16T06:02:00;12.90;99.90
8979;DHT22;4524;51.364;5.448;2022-10-16T06:04:27;12.90;99.90
8979;DHT22;4524;51.364;5.448;2022-10-16T06:06:58;12.90;99.90
8979;DHT22;4524;51.364;5.448;2022-10-16T06:09:26;12.90;99.90
8979;DHT22;4524;51.364;5.448;2022-10-16T06:11:56;12.90;99.90
8979;DHT22;4524;51.364;5.448;2022-10-16T06:14:24;12.90;99.90
8979;DHT22;4524;51.364;5.448;2022-10-16T06:16:52;12.90;99.90
8979;DHT22;4524;51.364;5.448;2022-10-16T06:19:19;12.90;99.90
8979;DHT22;4524;51.364;5.448;2022-10-16T06:21:47;12.90;99.90
8979;DHT22;4524;51.364;5.448;2022-10-16T06:24:15;12.90;99.90
8979;DHT22;4524;51.364;5.448;2022-10-16T06:26:43;12.90;99.90
8979;DHT22;4524;51.364;5.448;2022-10-16T06:29:12;12.90;99.90
8979;DHT22;4524;51.364;5.448;2022-10-16T06:31:40;12.90;99.90
8979;DHT22;4524;51.364;5.448;2022-10-16T06:34:09;12.90;99.90
8979;DHT22;4524;51.364;5.448;2022-10-16T06:36:38;12.80;99.90
8979;DHT22;4524;51.364;5.448;2022-10-16T06:39:06;12.90;99.90
8979;DHT22;4524;51.364;5.448;2022-10-16T06:41:34;12.90;99.90
8979;DHT22;4524;51.364;5.448;2022-10-16T06:44:15;12.90;99.90
8979;DHT22;4524;51.364;5.448;2022-10-16T06:46:43;12.80;99.90
8979;DHT22;4524;51.364;5.448;2022-10-16T06:49:11;12.90;99.90
8979;DHT22;4524;51.364;5.448;2022-10-16T06:51:39;12.90;99.90
8979;DHT22;4524;51.364;5.448;2022-10-16T06:54:09;12.90;99.90
8979;DHT22;4524;51.364;5.448;2022-10-16T06:56:37;13.00;99.90
8979;DHT22;4524;51.364;5.448;2022-10-16T06:59:05;13.10;99.90
8979;DHT22;4524;51.364;5.448;2022-10-16T07:01:34;13.20;99.90
8979;DHT22;4524;51.364;5.448;2022-10-16T07:04:02;13.20;99.90
8979;DHT22;4524;51.364;5.448;2022-10-16T07:06:31;13.30;99.90
8979;DHT22;4524;51.364;5.448;2022-10-16T07:09:02;13.30;99.90
8979;DHT22;4524;51.364;5.448;2022-10-16T07:11:30;13.40;99.90
8979;DHT22;4524;51.364;5.448;2022-10-16T07:13:58;13.50;99.90
8979;DHT22;4524;51.364;5.448;2022-10-16T07:16:27;13.60;99.90
8979;DHT22;4524;51.364;5.448;2022-10-16T07:18:58;13.60;21.60
8979;DHT22;4524;51.364;5.448;2022-10-16T07:21:28;13.70;25.20
8979;DHT22;4524;51.364;5.448;2022-10-16T07:23:57;13.80;18.80
8979;DHT22;4524;51.364;5.448;2022-10-16T07:26:27;13.90;21.60
8979;DHT22;4524;51.364;5.448;2022-10-16T07:28:56;13.90;1.00
8979;DHT22;4524;51.364;5.448;2022-10-16T07:31:25;14.00;1.00
8979;DHT22;4524;51.364;5.448;2022-10-16T07:33:53;14.10;1.00
8979;DHT22;4524;51.364;5.448;2022-10-16T07:36:23;14.20;1.00
8979;DHT22;4524;51.364;5.448;2022-10-16T07:38:50;14.20;1.00
8979;DHT22;4524;51.364;5.448;2022-10-16T07:41:24;14.30;1.00
8979;DHT22;4524;51.364;5.448;2022-10-16T07:43:53;14.40;99.90
8979;DHT22;4524;51.364;5.448;2022-10-16T07:46:22;14.50;99.90
8979;DHT22;4524;51.364;5.448;2022-10-16T07:48:50;14.60;99.90
8979;DHT22;4524;51.364;5.448;2022-10-16T07:51:21;14.70;99.90
8979;DHT22;4524;51.364;5.448;2022-10-16T07:53:51;14.80;99.90
8979;DHT22;4524;51.364;5.448;2022-10-16T07:56:20;14.90;99.90
8979;DHT22;4524;51.364;5.448;2022-10-16T07:58:49;14.90;99.90
8979;DHT22;4524;51.364;5.448;2022-10-16T08:01:18;15.00;99.90
8979;DHT22;4524;51.364;5.448;2022-10-16T08:03:48;15.10;99.90
8979;DHT22;4524;51.364;5.448;2022-10-16T08:06:16;15.20;99.90
8979;DHT22;4524;51.364;5.448;2022-10-16T08:08:52;15.30;29.70
8979;DHT22;4524;51.364;5.448;2022-10-16T08:11:20;15.30;55.80
8979;DHT22;4524;51.364;5.448;2022-10-16T08:13:47;15.40;28.00
8979;DHT22;4524;51.364;5.448;2022-10-16T08:16:15;15.50;94.90
8979;DHT22;4524;51.364;5.448;2022-10-16T08:18:43;15.50;1.00
8979;DHT22;4524;51.364;5.448;2022-10-16T08:21:13;15.60;1.00
8979;DHT22;4524;51.364;5.448;2022-10-16T08:23:47;15.60;1.00
8979;DHT22;4524;51.364;5.448;2022-10-16T08:26:25;15.80;1.00
8979;DHT22;4524;51.364;5.448;2022-10-16T08:28:54;15.80;1.00
8979;DHT22;4524;51.364;5.448;2022-10-16T08:31:22;15.90;1.00
8979;DHT22;4524;51.364;5.448;2022-10-16T08:33:50;15.90;1.00
8979;DHT22;4524;51.364;5.448;2022-10-16T08:36:19;16.00;1.00
8979;DHT22;4524;51.364;5.448;2022-10-16T08:38:48;16.10;1.00
8979;DHT22;4524;51.364;5.448;2022-10-16T08:41:56;16.10;1.00
8979;DHT22;4524;51.364;5.448;2022-10-16T08:44:54;16.10;1.00
8979;DHT22;4524;51.364;5.448;2022-10-16T08:47:29;16.30;1.00
8979;DHT22;4524;51.364;5.448;2022-10-16T08:50:08;16.20;99.90
8979;DHT22;4524;51.364;5.448;2022-10-16T08:52:40;16.40;1.00
8979;DHT22;4524;51.364;5.448;2022-10-16T08:55:19;16.40;1.00
8979;DHT22;4524;51.364;5.448;2022-10-16T08:57:52;16.40;99.90
8979;DHT22;4524;51.364;5.448;2022-10-16T09:00:21;16.40;99.90
8979;DHT22;4524;51.364;5.448;2022-10-16T09:02:52;16.50;99.90
8979;DHT22;4524;51.364;5.448;2022-10-16T09:05:36;16.50;99.90
8979;DHT22;4524;51.364;5.448;2022-10-16T09:08:17;16.40;99.90
8979;DHT22;4524;51.364;5.448;2022-10-16T09:10:54;16.60;99.90
8979;DHT22;4524;51.364;5.448;2022-10-16T09:13:28;16.70;99.90
8979;DHT22;4524;51.364;5.448;2022-10-16T09:16:07;16.80;99.90
8979;DHT22;4524;51.364;5.448;2022-10-16T09:18:42;16.70;99.90
8979;DHT22;4524;51.364;5.448;2022-10-16T09:21:16;16.80;99.90
8979;DHT22;4524;51.364;5.448;2022-10-16T09:23:45;16.90;99.90
8979;DHT22;4524;51.364;5.448;2022-10-16T09:26:16;16.90;99.90
8979;DHT22;4524;51.364;5.448;2022-10-16T09:28:47;17.00;99.90
8979;DHT22;4524;51.364;5.448;2022-10-16T09:31:19;17.10;99.90
8979;DHT22;4524;51.364;5.448;2022-10-16T09:33:51;17.10;99.90
8979;DHT22;4524;51.364;5.448;2022-10-16T09:36:21;17.20;99.90
8979;DHT22;4524;51.364;5.448;2022-10-16T09:38:49;17.20;99.90
8979;DHT22;4524;51.364;5.448;2022-10-16T09:41:19;17.30;99.90
8979;DHT22;4524;51.364;5.448;2022-10-16T09:44:16;17.30;99.90
8979;DHT22;4524;51.364;5.448;2022-10-16T09:46:44;17.30;99.90
8979;DHT22;4524;51.364;5.448;2022-10-16T09:49:21;17.40;99.90
8979;DHT22;4524;51.364;5.448;2022-10-16T09:51:49;17.40;99.90
8979;DHT22;4524;51.364;5.448;2022-10-16T09:54:19;17.40;99.90
8979;DHT22;4524;51.364;5.448;2022-10-16T09:56:48;17.40;99.90
8979;DHT22;4524;51.364;5.448;2022-10-16T09:59:21;17.50;99.90
8979;DHT22;4524;51.364;5.448;2022-10-16T10:01:51;17.60;99.90
8979;DHT22;4524;51.364;5.448;2022-10-16T10:04:22;17.80;99.90
8979;DHT22;4524;51.364;5.448;2022-10-16T10:06:51;17.80;99.90
8979;DHT22;4524;51.364;5.448;2022-10-16T10:09:22;18.00;99.90
8979;DHT22;4524;51.364;5.448;2022-10-16T10:11:53;17.80;99.90
8979;DHT22;4524;51.364;5.448;2022-10-16T10:14:25;17.80;99.90
8979;DHT22;4524;51.364;5.448;2022-10-16T10:17:10;18.00;99.90
8979;DHT22;4524;51.364;5.448;2022-10-16T10:19:40;18.30;99.90
8979;DHT22;4524;51.364;5.448;2022-10-16T10:22:22;18.20;99.90
8979;DHT22;4524;51.364;5.448;2022-10-16T10:25:12;18.30;99.90
8979;DHT22;4524;51.364;5.448;2022-10-16T10:27:56;18.10;99.90
8979;DHT22;4524;51.364;5.448;2022-10-16T10:30:36;17.90;99.90
8979;DHT22;4524;51.364;5.448;2022-10-16T10:33:19;18.10;99.90
8979;DHT22;4524;51.364;5.448;2022-10-16T10:35:56;18.10;99.90
8979;DHT22;4524;51.364;5.448;2022-10-16T10:38:33;18.10;99.90
8979;DHT22;4524;51.364;5.448;2022-10-16T10:41:19;18.10;99.90
8979;DHT22;4524;51.364;5.448;2022-10-16T10:44:03;18.00;99.90
8979;DHT22;4524;51.364;5.448;2022-10-16T10:46:41;18.30;99.90
8979;DHT22;4524;51.364;5.448;2022-10-16T10:49:39;18.50;99.90
8979;DHT22;4524;51.364;5.448;2022-10-16T10:52:34;18.40;99.90
8979;DHT22;4524;51.364;5.448;2022-10-16T10:55:12;18.40;99.90
8979;DHT22;4524;51.364;5.448;2022-10-16T10:57:52;18.70;99.90
8979;DHT22;4524;51.364;5.448;2022-10-16T11:00:40;18.50;99.90
8979;DHT22;4524;51.364;5.448;2022-10-16T11:03:19;18.50;99.90
8979;DHT22;4524;51.364;5.448;2022-10-16T11:05:52;18.40;99.90
8979;DHT22;4524;51.364;5.448;2022-10-16T11:08:27;18.30;99.90
8979;DHT22;4524;51.364;5.448;2022-10-16T11:10:58;18.00;99.90
8979;DHT22;4524;51.364;5.448;2022-10-16T11:13:31;18.10;99.90
8979;DHT22;4524;51.364;5.448;2022-10-16T11:16:03;18.10;99.90
8979;DHT22;4524;51.364;5.448;2022-10-16T11:18:43;18.10;99.90
8979;DHT22;4524;51.364;5.448;2022-10-16T11:21:16;18.30;99.90
8979;DHT22;4524;51.364;5.448;2022-10-16T11:23:48;18.30;99.90
8979;DHT22;4524;51.364;5.448;2022-10-16T11:26:21;18.30;99.90
8979;DHT22;4524;51.364;5.448;2022-10-16T11:28:53;18.40;99.90
8979;DHT22;4524;51.364;5.448;2022-10-16T11:31:28;18.40;99.90
8979;DHT22;4524;51.364;5.448;2022-10-16T11:34:04;18.40;99.90
8979;DHT22;4524;51.364;5.448;2022-10-16T11:36:39;18.40;99.90
8979;DHT22;4524;51.364;5.448;2022-10-16T11:39:19;18.40;99.90
8979;DHT22;4524;51.364;5.448;2022-10-16T11:41:50;18.20;99.90
8979;DHT22;4524;51.364;5.448;2022-10-16T11:44:38;18.00;99.90
8979;DHT22;4524;51.364;5.448;2022-10-16T11:47:19;18.00;99.90
8979;DHT22;4524;51.364;5.448;2022-10-16T11:50:17;17.90;99.90
8979;DHT22;4524;51.364;5.448;2022-10-16T11:52:53;18.00;99.90
8979;DHT22;4524;51.364;5.448;2022-10-16T11:55:27;17.80;99.90
8979;DHT22;4524;51.364;5.448;2022-10-16T11:58:00;17.80;99.90
8979;DHT22;4524;51.364;5.448;2022-10-16T12:00:35;17.90;99.90
8979;DHT22;4524;51.364;5.448;2022-10-16T12:03:14;18.10;99.90
8979;DHT22;4524;51.364;5.448;2022-10-16T12:05:58;18.10;99.90
8979;DHT22;4524;51.364;5.448;2022-10-16T12:08:30;18.10;99.90
8979;DHT22;4524;51.364;5.448;2022-10-16T12:11:07;18.00;99.90
8979;DHT22;4524;51.364;5.448;2022-10-16T12:13:37;17.80;99.90
8979;DHT22;4524;51.364;5.448;2022-10-16T12:16:21;17.90;99.90
8979;DHT22;4524;51.364;5.448;2022-10-16T12:18:49;18.10;99.90
8979;DHT22;4524;51.364;5.448;2022-10-16T12:21:31;18.30;99.90
8979;DHT22;4524;51.364;5.448;2022-10-16T12:24:01;18.50;99.90
8979;DHT22;4524;51.364;5.448;2022-10-16T12:26:32;18.50;99.90
8979;DHT22;4524;51.364;5.448;2022-10-16T12:29:13;18.30;99.90
8979;DHT22;4524;51.364;5.448;2022-10-16T12:31:45;18.30;99.90
8979;DHT22;4524;51.364;5.448;2022-10-16T12:34:27;18.40;99.90
8979;DHT22;4524;51.364;5.448;2022-10-16T12:37:09;18.60;99.90
8979;DHT22;4524;51.364;5.448;2022-10-16T12:39:37;18.70;99.90
8979;DHT22;4524;51.364;5.448;2022-10-16T12:42:21;18.70;99.90
8979;DHT22;4524;51.364;5.448;2022-10-16T12:44:50;18.80;99.90
8979;DHT22;4524;51.364;5.448;2022-10-16T12:47:24;18.80;99.90
8979;DHT22;4524;51.364;5.448;2022-10-16T12:50:03;18.80;99.90
8979;DHT22;4524;51.364;5.448;2022-10-16T12:52:40;18.80;99.90
8979;DHT22;4524;51.364;5.448;2022-10-16T12:55:16;18.80;99.90
8979;DHT22;4524;51.364;5.448;2022-10-16T12:58:02;18.70;99.90
8979;DHT22;4524;51.364;5.448;2022-10-16T13:00:38;18.60;99.90
8979;DHT22;4524;51.364;5.448;2022-10-16T13:03:26;18.50;99.90
8979;DHT22;4524;51.364;5.448;2022-10-16T13:06:08;18.50;99.90
8979;DHT22;4524;51.364;5.448;2022-10-16T13:08:58;18.60;99.90
8979;DHT22;4524;51.364;5.448;2022-10-16T13:11:39;18.60;99.90
8979;DHT22;4524;51.364;5.448;2022-10-16T13:14:32;18.60;99.90
8979;DHT22;4524;51.364;5.448;2022-10-16T13:17:09;18.60;99.90
8979;DHT22;4524;51.364;5.448;2022-10-16T13:19:46;18.60;99.90
8979;DHT22;4524;51.364;5.448;2022-10-16T13:22:21;18.70;99.90
8979;DHT22;4524;51.364;5.448;2022-10-16T13:25:02;18.70;99.90
8979;DHT22;4524;51.364;5.448;2022-10-16T13:27:44;18.70;99.90
8979;DHT22;4524;51.364;5.448;2022-10-16T13:30:17;18.70;99.90
8979;DHT22;4524;51.364;5.448;2022-10-16T13:32:47;18.70;99.90
8979;DHT22;4524;51.364;5.448;2022-10-16T13:35:21;18.80;99.90
8979;DHT22;4524;51.364;5.448;2022-10-16T13:37:49;18.90;99.90
8979;DHT22;4524;51.364;5.448;2022-10-16T13:40:23;18.90;99.90
8979;DHT22;4524;51.364;5.448;2022-10-16T13:42:53;19.00;99.90
8979;DHT22;4524;51.364;5.448;2022-10-16T13:45:24;19.00;99.90
8979;DHT22;4524;51.364;5.448;2022-10-16T13:48:02;19.10;99.90
8979;DHT22;4524;51.364;5.448;2022-10-16T13:50:30;19.10;99.90
8979;DHT22;4524;51.364;5.448;2022-10-16T13:53:05;19.10;99.90
8979;DHT22;4524;51.364;5.448;2022-10-16T13:55:34;19.10;99.90
8979;DHT22;4524;51.364;5.448;2022-10-16T13:58:07;19.10;99.90
8979;DHT22;4524;51.364;5.448;2022-10-16T14:00:35;19.10;99.90
8979;DHT22;4524;51.364;5.448;2022-10-16T14:03:06;19.10;99.90
8979;DHT22;4524;51.364;5.448;2022-10-16T14:05:35;19.10;99.90
8979;DHT22;4524;51.364;5.448;2022-10-16T14:08:03;19.00;99.90
8979;DHT22;4524;51.364;5.448;2022-10-16T14:10:33;19.00;99.90
8979;DHT22;4524;51.364;5.448;2022-10-16T14:13:02;19.00;99.90
8979;DHT22;4524;51.364;5.448;2022-10-16T14:15:31;19.00;99.90
8979;DHT22;4524;51.364;5.448;2022-10-16T14:18:00;19.00;99.90
8979;DHT22;4524;51.364;5.448;2022-10-16T14:20:30;19.10;99.90
8979;DHT22;4524;51.364;5.448;2022-10-16T14:23:01;19.00;99.90
8979;DHT22;4524;51.364;5.448;2022-10-16T14:25:31;19.00;99.90
8979;DHT22;4524;51.364;5.448;2022-10-16T14:28:14;19.00;99.90
8979;DHT22;4524;51.364;5.448;2022-10-16T14:30:49;19.00;99.90
8979;DHT22;4524;51.364;5.448;2022-10-16T14:33:23;19.00;99.90
8979;DHT22;4524;51.364;5.448;2022-10-16T14:36:03;19.00;99.90
8979;DHT22;4524;51.364;5.448;2022-10-16T14:38:32;19.00;99.90
8979;DHT22;4524;51.364;5.448;2022-10-16T14:41:00;19.00;99.90
8979;DHT22;4524;51.364;5.448;2022-10-16T14:43:32;19.00;99.90
8979;DHT22;4524;51.364;5.448;2022-10-16T14:46:02;19.10;99.90
8979;DHT22;4524;51.364;5.448;2022-10-16T14:48:31;19.00;99.90
8979;DHT22;4524;51.364;5.448;2022-10-16T14:50:59;19.10;99.90
8979;DHT22;4524;51.364;5.448;2022-10-16T14:53:27;19.10;99.90
8979;DHT22;4524;51.364;5.448;2022-10-16T14:55:55;19.00;99.90
8979;DHT22;4524;51.364;5.448;2022-10-16T14:58:45;19.00;99.90
8979;DHT22;4524;51.364;5.448;2022-10-16T15:01:13;19.00;99.90
8979;DHT22;4524;51.364;5.448;2022-10-16T15:03:41;19.00;99.90
8979;DHT22;4524;51.364;5.448;2022-10-16T15:06:10;19.00;99.90
8979;DHT22;4524;51.364;5.448;2022-10-16T15:08:39;19.00;99.90
8979;DHT22;4524;51.364;5.448;2022-10-16T15:11:09;18.90;99.90
8979;DHT22;4524;51.364;5.448;2022-10-16T15:13:38;18.80;99.90
8979;DHT22;4524;51.364;5.448;2022-10-16T15:16:11;18.80;99.90
8979;DHT22;4524;51.364;5.448;2022-10-16T15:18:39;18.80;99.90
8979;DHT22;4524;51.364;5.448;2022-10-16T15:21:08;18.80;99.90
8979;DHT22;4524;51.364;5.448;2022-10-16T15:23:36;18.70;99.90
8979;DHT22;4524;51.364;5.448;2022-10-16T15:26:05;18.70;99.90
8979;DHT22;4524;51.364;5.448;2022-10-16T15:28:33;18.70;99.90
8979;DHT22;4524;51.364;5.448;2022-10-16T15:31:04;18.70;99.90
8979;DHT22;4524;51.364;5.448;2022-10-16T15:33:33;18.70;99.90
8979;DHT22;4524;51.364;5.448;2022-10-16T15:36:05;18.60;99.90
8979;DHT22;4524;51.364;5.448;2022-10-16T15:38:33;18.60;99.90
8979;DHT22;4524;51.364;5.448;2022-10-16T15:41:01;18.60;99.90
8979;DHT22;4524;51.364;5.448;2022-10-16T15:43:30;18.50;99.90
8979;DHT22;4524;51.364;5.448;2022-10-16T15:46:00;18.50;99.90
8979;DHT22;4524;51.364;5.448;2022-10-16T15:48:31;18.40;99.90
8979;DHT22;4524;51.364;5.448;2022-10-16T15:51:04;18.40;99.90
8979;DHT22;4524;51.364;5.448;2022-10-16T15:53:33;18.30;99.90
8979;DHT22;4524;51.364;5.448;2022-10-16T15:56:01;18.30;99.90
8979;DHT22;4524;51.364;5.448;2022-10-16T15:58:29;18.20;99.90
8979;DHT22;4524;51.364;5.448;2022-10-16T16:00:58;18.10;99.90
8979;DHT22;4524;51.364;5.448;2022-10-16T16:03:28;18.00;99.90
8979;DHT22;4524;51.364;5.448;2022-10-16T16:05:56;17.90;99.90
8979;DHT22;4524;51.364;5.448;2022-10-16T16:08:25;17.80;99.90
8979;DHT22;4524;51.364;5.448;2022-10-16T16:11:00;17.70;99.90
8979;DHT22;4524;51.364;5.448;2022-10-16T16:13:28;17.70;99.90
8979;DHT22;4524;51.364;5.448;2022-10-16T16:15:56;17.60;99.90
8979;DHT22;4524;51.364;5.448;2022-10-16T16:18:24;17.60;99.90
8979;DHT22;4524;51.364;5.448;2022-10-16T16:20:52;17.70;99.90
8979;DHT22;4524;51.364;5.448;2022-10-16T16:23:20;17.60;99.90
8979;DHT22;4524;51.364;5.448;2022-10-16T16:26:04;17.50;1.00
8979;DHT22;4524;51.364;5.448;2022-10-16T16:28:32;17.30;1.00
8979;DHT22;4524;51.364;5.448;2022-10-16T16:31:00;17.40;1.00
8979;DHT22;4524;51.364;5.448;2022-10-16T16:33:28;17.40;1.00
8979;DHT22;4524;51.364;5.448;2022-10-16T16:35:57;17.40;1.00